Aviation Digital Data Service (ADDS)

Output produced by METARs form (2151 UTC 19 February 2018)
found at http://www.aviationweather.gov/adds/metars/
 
ZMUB 192130Z 18002MPS 6000NW NSC M31/M35 Q1023 NOSIG RMK QFE659.1 68 NT
TAF ZMUB 191640Z 1918/2024 VRB02MPS 6000 SCT100 TNM29/1923Z TXM12/2007Z 
     BECMG 1923/2001 4000 FU 
     BECMG 2005/2007 6000